createdAt,value
2023-02-27T00:02:12.952Z,2.70
2023-02-27T00:04:40.909Z,2.33
2023-02-27T00:07:08.757Z,2.13
2023-02-27T00:09:36.242Z,2.38
2023-02-27T00:12:03.765Z,1.77
2023-02-27T00:14:32.631Z,1.65
2023-02-27T00:17:00.136Z,1.63
2023-02-27T00:19:27.788Z,1.33
2023-02-27T00:21:55.274Z,1.27
2023-02-27T00:24:23.396Z,1.58
2023-02-27T00:26:50.822Z,1.30
2023-02-27T00:29:18.313Z,1.48
2023-02-27T00:31:47.274Z,1.30
2023-02-27T00:34:15.673Z,1.75
2023-02-27T00:36:43.340Z,1.38
2023-02-27T00:39:10.863Z,1.38
2023-02-27T00:41:38.381Z,1.45
2023-02-27T00:44:06.088Z,1.88
2023-02-27T00:46:33.570Z,1.75
2023-02-27T00:49:02.421Z,1.65
2023-02-27T00:51:30.073Z,2.13
2023-02-27T00:53:57.786Z,2.75
2023-02-27T00:56:25.527Z,2.40
2023-02-27T00:58:53.036Z,2.88
2023-02-27T01:01:20.686Z,3.47
2023-02-27T01:03:48.265Z,4.32
2023-02-27T01:06:17.095Z,4.70
2023-02-27T01:08:44.589Z,5.40
2023-02-27T01:11:12.119Z,5.38
2023-02-27T01:13:39.639Z,5.68
2023-02-27T01:16:08.476Z,5.57
2023-02-27T01:18:36.037Z,4.40
2023-02-27T01:21:03.568Z,3.25
2023-02-27T01:23:32.393Z,2.78
2023-02-27T01:25:59.849Z,3.45
2023-02-27T01:28:27.391Z,2.55
2023-02-27T01:30:54.957Z,2.38
2023-02-27T01:33:22.706Z,2.10
2023-02-27T01:35:50.183Z,1.52
2023-02-27T01:38:17.658Z,1.70
2023-02-27T01:40:46.529Z,2.30
2023-02-27T01:43:15.810Z,1.85
2023-02-27T01:45:43.968Z,1.45
2023-02-27T01:48:14.409Z,1.40
2023-02-27T01:50:43.797Z,1.50
2023-02-27T01:53:11.909Z,1.23
2023-02-27T01:55:40.020Z,1.45
2023-02-27T01:58:09.900Z,1.50
2023-02-27T02:00:37.665Z,1.40
2023-02-27T02:03:09.131Z,1.30
2023-02-27T02:05:36.736Z,1.55
2023-02-27T02:08:04.885Z,1.25
2023-02-27T02:10:33.229Z,1.50
2023-02-27T02:13:01.385Z,1.30
2023-02-27T02:15:32.979Z,1.30
2023-02-27T02:18:07.092Z,1.45
2023-02-27T02:21:03.996Z,1.45
2023-02-27T02:23:46.425Z,1.42
2023-02-27T02:26:25.011Z,1.60
2023-02-27T02:29:25.653Z,1.48
2023-02-27T02:32:14.011Z,1.50
2023-02-27T02:35:10.471Z,1.63
2023-02-27T02:37:56.767Z,1.40
2023-02-27T02:40:37.227Z,1.52
2023-02-27T02:43:07.682Z,2.03
2023-02-27T02:45:40.426Z,1.60
2023-02-27T02:48:11.626Z,1.95
2023-02-27T02:50:42.608Z,1.67
2023-02-27T02:53:12.441Z,1.80
2023-02-27T02:55:43.446Z,1.67
2023-02-27T02:58:13.072Z,2.00
2023-02-27T03:00:43.816Z,2.10
2023-02-27T03:03:13.426Z,2.00
2023-02-27T03:05:43.550Z,2.10
2023-02-27T03:08:13.704Z,1.98
2023-02-27T03:10:44.517Z,1.60
2023-02-27T03:13:14.176Z,1.38
2023-02-27T03:15:45.851Z,1.50
2023-02-27T03:18:18.571Z,1.70
2023-02-27T03:20:48.408Z,1.55
2023-02-27T03:23:18.471Z,1.77
2023-02-27T03:25:48.212Z,1.90
2023-02-27T03:28:17.383Z,1.63
2023-02-27T03:30:46.405Z,1.83
2023-02-27T03:33:16.482Z,1.95
2023-02-27T03:35:46.503Z,1.80
2023-02-27T03:38:18.432Z,1.95
2023-02-27T03:40:50.672Z,2.30
2023-02-27T03:43:21.121Z,2.38
2023-02-27T03:45:54.122Z,2.25
2023-02-27T03:48:21.693Z,2.22
2023-02-27T03:50:49.585Z,1.98
2023-02-27T03:53:20.568Z,2.58
2023-02-27T03:55:50.035Z,2.40
2023-02-27T03:58:17.730Z,2.28
2023-02-27T04:00:45.269Z,2.17
2023-02-27T04:03:12.819Z,2.25
2023-02-27T04:05:40.275Z,2.10
2023-02-27T04:08:24.331Z,1.50
2023-02-27T04:11:00.436Z,1.55
2023-02-27T04:13:31.575Z,1.50
2023-02-27T04:16:04.000Z,1.90
2023-02-27T04:18:37.847Z,1.23
2023-02-27T04:21:08.479Z,1.70
2023-02-27T04:23:39.008Z,1.65
2023-02-27T04:26:15.597Z,1.42
2023-02-27T04:28:45.377Z,2.15
2023-02-27T04:31:16.625Z,2.05
2023-02-27T04:33:45.879Z,1.70
2023-02-27T04:36:17.541Z,1.45
2023-02-27T04:38:47.428Z,1.75
2023-02-27T04:41:20.416Z,1.40
2023-02-27T04:43:49.156Z,2.08
2023-02-27T04:46:18.182Z,1.88
2023-02-27T04:48:49.341Z,1.83
2023-02-27T04:51:18.485Z,1.70
2023-02-27T04:53:48.427Z,1.73
2023-02-27T04:56:20.265Z,1.77
2023-02-27T05:01:17.836Z,1.42
2023-02-27T05:03:48.555Z,1.67
2023-02-27T05:06:18.353Z,1.90
2023-02-27T05:08:50.648Z,1.95
2023-02-27T05:11:21.797Z,2.40
2023-02-27T05:13:53.150Z,2.33
2023-02-27T05:16:22.966Z,2.67
2023-02-27T05:18:51.276Z,2.72
2023-02-27T05:21:23.149Z,3.22
2023-02-27T05:26:20.836Z,1.80
2023-02-27T05:28:51.646Z,1.98
2023-02-27T05:31:22.402Z,2.63
2023-02-27T05:33:55.306Z,2.60
2023-02-27T05:36:25.233Z,2.60
2023-02-27T05:38:54.616Z,2.50
2023-02-27T05:41:25.174Z,2.30
2023-02-27T05:43:54.834Z,3.00
2023-02-27T05:46:24.667Z,2.90
2023-02-27T05:48:55.396Z,2.50
2023-02-27T05:51:25.242Z,2.47
2023-02-27T05:53:56.091Z,4.10
2023-02-27T05:56:26.832Z,4.03
2023-02-27T05:58:56.913Z,3.50
2023-02-27T06:01:24.520Z,3.05
2023-02-27T06:03:52.221Z,3.50
2023-02-27T06:06:20.330Z,3.17
2023-02-27T06:08:47.912Z,3.53
2023-02-27T06:11:15.431Z,4.43
2023-02-27T06:13:44.414Z,3.67
2023-02-27T06:16:12.654Z,3.00
2023-02-27T06:18:40.208Z,3.65
2023-02-27T06:21:07.729Z,3.55
2023-02-27T06:23:35.216Z,3.17
2023-02-27T06:26:02.712Z,3.42
2023-02-27T06:28:30.274Z,3.05
2023-02-27T06:30:59.234Z,3.47
2023-02-27T06:33:27.100Z,3.15
2023-02-27T06:35:54.679Z,3.50
2023-02-27T06:38:22.235Z,4.28
2023-02-27T06:40:49.754Z,3.95
2023-02-27T06:43:17.296Z,3.53
2023-02-27T06:45:44.770Z,2.85
2023-02-27T06:48:14.811Z,2.65
2023-02-27T06:50:42.314Z,2.58
2023-02-27T06:53:09.807Z,2.78
2023-02-27T06:55:37.290Z,2.75
2023-02-27T06:58:04.798Z,1.95
2023-02-27T07:00:32.252Z,2.33
2023-02-27T07:03:00.439Z,1.92
2023-02-27T07:05:29.323Z,1.88
2023-02-27T07:07:58.611Z,1.83
2023-02-27T07:10:26.654Z,2.05
2023-02-27T07:12:55.096Z,1.92
2023-02-27T07:15:22.777Z,2.08
2023-02-27T07:17:50.257Z,1.85
2023-02-27T07:20:17.813Z,2.20
2023-02-27T07:22:46.774Z,2.17
2023-02-27T07:25:14.275Z,2.03
2023-02-27T07:27:44.263Z,1.95
2023-02-27T07:30:12.565Z,2.22
2023-02-27T07:32:40.182Z,2.25
2023-02-27T07:35:08.577Z,2.20
2023-02-27T07:37:36.304Z,2.20
2023-02-27T07:40:05.476Z,2.47
2023-02-27T07:42:32.935Z,2.55
2023-02-27T07:45:00.444Z,1.90
2023-02-27T07:47:30.168Z,2.25
2023-02-27T07:49:57.659Z,1.90
2023-02-27T07:52:25.199Z,2.20
2023-02-27T07:54:52.713Z,2.13
2023-02-27T07:57:21.514Z,1.75
2023-02-27T07:59:49.449Z,2.22
2023-02-27T08:02:16.959Z,2.20
2023-02-27T08:04:44.529Z,2.20
2023-02-27T08:07:12.085Z,2.35
2023-02-27T08:09:39.596Z,2.53
2023-02-27T08:12:07.283Z,2.50
2023-02-27T08:14:36.144Z,2.08
2023-02-27T08:17:03.734Z,2.40
2023-02-27T08:19:31.343Z,2.60
2023-02-27T08:21:58.798Z,2.35
2023-02-27T08:24:26.332Z,2.58
2023-02-27T08:26:53.791Z,2.13
2023-02-27T08:29:21.306Z,2.30
2023-02-27T08:31:50.403Z,2.40
2023-02-27T08:34:18.217Z,3.03
2023-02-27T08:36:45.781Z,2.42
2023-02-27T08:39:13.671Z,2.13
2023-02-27T08:41:41.612Z,2.28
2023-02-27T08:44:09.083Z,2.63
2023-02-27T08:46:36.614Z,2.53
2023-02-27T08:49:05.569Z,2.33
2023-02-27T08:51:33.501Z,2.40
2023-02-27T08:54:01.013Z,2.38
2023-02-27T08:56:29.015Z,2.25
2023-02-27T08:58:57.007Z,2.17
2023-02-27T09:01:27.284Z,2.28
2023-02-27T09:03:55.209Z,2.10
2023-02-27T09:06:26.227Z,2.60
2023-02-27T09:08:54.250Z,2.28
2023-02-27T09:11:21.804Z,2.10
2023-02-27T09:13:49.412Z,1.92
2023-02-27T09:16:16.940Z,1.80
2023-02-27T09:18:44.661Z,2.15
2023-02-27T09:21:12.626Z,1.88
2023-02-27T09:23:41.667Z,2.00
2023-02-27T09:26:10.267Z,2.25
2023-02-27T09:28:39.895Z,1.92
2023-02-27T09:31:08.410Z,1.45
2023-02-27T09:33:37.137Z,2.20
2023-02-27T09:36:05.627Z,1.67
2023-02-27T09:38:33.434Z,3.10
2023-02-27T09:41:02.596Z,2.15
2023-02-27T09:43:33.915Z,7.10
2023-02-27T09:46:01.925Z,4.88
2023-02-27T09:48:31.377Z,1.88
2023-02-27T09:50:59.278Z,1.80
2023-02-27T09:53:28.148Z,1.70
2023-02-27T09:55:57.614Z,1.95
2023-02-27T09:58:35.748Z,1.50
2023-02-27T10:01:07.055Z,1.50
2023-02-27T10:06:11.084Z,1.75
2023-02-27T10:08:41.597Z,1.60
2023-02-27T10:11:09.877Z,1.42
2023-02-27T10:13:43.804Z,1.70
2023-02-27T10:16:12.829Z,1.42
2023-02-27T10:18:48.024Z,1.40
2023-02-27T10:21:18.006Z,1.10
2023-02-27T10:23:47.280Z,0.90
2023-02-27T10:26:19.149Z,1.00
2023-02-27T10:28:48.139Z,1.30
2023-02-27T10:31:19.598Z,1.33
2023-02-27T10:33:49.042Z,1.17
2023-02-27T10:36:32.499Z,1.17
2023-02-27T10:41:29.219Z,1.85
2023-02-27T10:43:59.419Z,1.40
2023-02-27T10:46:28.680Z,1.25
2023-02-27T10:48:56.796Z,0.88
2023-02-27T10:51:25.887Z,0.98
2023-02-27T10:54:13.964Z,1.15
2023-02-27T10:56:41.944Z,0.60
2023-02-27T10:59:18.589Z,1.00
2023-02-27T11:01:47.771Z,0.70
2023-02-27T11:04:15.536Z,0.90
2023-02-27T11:06:43.301Z,0.70
2023-02-27T11:09:12.558Z,0.65
2023-02-27T11:11:40.322Z,0.73
2023-02-27T11:14:24.984Z,0.80
2023-02-27T11:16:53.165Z,0.90
2023-02-27T11:19:30.424Z,0.77
2023-02-27T11:22:02.366Z,0.60
2023-02-27T11:24:30.824Z,0.60
2023-02-27T11:26:59.441Z,0.50
2023-02-27T11:29:28.979Z,1.42
2023-02-27T11:31:57.308Z,1.20
2023-02-27T11:34:27.404Z,1.50
2023-02-27T11:36:56.680Z,0.60
2023-02-27T11:39:26.721Z,0.63
2023-02-27T11:41:54.807Z,0.60
2023-02-27T11:44:38.709Z,0.63
2023-02-27T11:49:46.874Z,0.70
2023-02-27T11:52:20.938Z,0.70
2023-02-27T11:54:50.264Z,0.70
2023-02-27T11:57:21.665Z,0.52
2023-02-27T11:59:50.793Z,0.63
2023-02-27T12:02:21.575Z,0.68
2023-02-27T12:04:52.638Z,0.50
2023-02-27T12:07:22.699Z,0.60
2023-02-27T12:09:53.027Z,0.40
2023-02-27T12:12:23.405Z,0.60
2023-02-27T12:14:56.466Z,2.20
2023-02-27T12:17:26.452Z,5.93
2023-02-27T12:20:01.644Z,2.70
2023-02-27T12:22:30.800Z,0.50
2023-02-27T12:24:59.876Z,0.52
2023-02-27T12:27:30.531Z,0.50
2023-02-27T12:30:00.718Z,0.55
2023-02-27T12:32:32.316Z,0.40
2023-02-27T12:35:02.764Z,0.25
2023-02-27T12:37:33.398Z,0.40
2023-02-27T12:40:01.809Z,0.40
2023-02-27T12:42:47.585Z,0.40
2023-02-27T12:45:23.524Z,0.32
2023-02-27T12:47:57.154Z,0.22
2023-02-27T12:50:26.862Z,0.40
2023-02-27T12:53:03.332Z,0.57
2023-02-27T12:55:32.926Z,0.50
2023-02-27T12:58:16.113Z,0.40
2023-02-27T13:00:46.841Z,0.40
2023-02-27T13:03:16.833Z,0.30
2023-02-27T13:05:47.824Z,0.40
2023-02-27T13:08:38.165Z,0.30
2023-02-27T13:11:08.348Z,0.40
2023-02-27T13:13:39.797Z,0.40
2023-02-27T13:16:12.379Z,0.45
2023-02-27T13:18:43.348Z,0.40
2023-02-27T13:21:14.505Z,0.38
2023-02-27T13:26:15.482Z,0.32
2023-02-27T13:28:43.121Z,0.47
2023-02-27T13:31:14.935Z,0.40
2023-02-27T13:33:44.656Z,0.20
2023-02-27T13:36:16.649Z,0.30
2023-02-27T13:38:45.014Z,0.40
2023-02-27T13:41:36.037Z,0.65
2023-02-27T13:44:18.697Z,0.30
2023-02-27T13:46:46.348Z,0.25
2023-02-27T13:49:29.581Z,0.47
2023-02-27T13:52:02.040Z,0.40
2023-02-27T13:54:33.977Z,0.70
2023-02-27T13:57:09.848Z,0.40
2023-02-27T13:59:39.568Z,0.57
2023-02-27T14:02:27.235Z,0.50
2023-02-27T14:04:58.116Z,0.45
2023-02-27T14:07:28.792Z,0.60
2023-02-27T14:10:02.160Z,0.40
2023-02-27T14:12:42.625Z,0.28
2023-02-27T14:15:35.707Z,0.45
2023-02-27T14:18:15.933Z,0.60
2023-02-27T14:20:49.695Z,0.65
2023-02-27T14:23:21.640Z,0.40
2023-02-27T14:25:52.164Z,0.40
2023-02-27T14:28:24.226Z,0.32
2023-02-27T14:30:57.329Z,0.50
2023-02-27T14:33:39.607Z,0.47
2023-02-27T14:36:10.209Z,0.50
2023-02-27T14:38:39.472Z,0.47
2023-02-27T14:41:22.423Z,0.50
2023-02-27T14:43:57.355Z,0.50
2023-02-27T14:46:27.474Z,0.55
2023-02-27T14:48:55.973Z,0.43
2023-02-27T14:51:24.211Z,0.40
2023-02-27T14:54:03.299Z,0.50
2023-02-27T14:56:31.226Z,0.40
2023-02-27T14:59:04.201Z,0.50
2023-02-27T15:01:35.828Z,0.50
2023-02-27T15:04:05.354Z,0.40
2023-02-27T15:06:36.154Z,0.57
2023-02-27T15:09:05.661Z,0.60
2023-02-27T15:11:33.283Z,0.70
2023-02-27T15:14:02.618Z,0.50
2023-02-27T15:16:34.379Z,1.20
2023-02-27T15:19:03.753Z,0.90
2023-02-27T15:21:32.208Z,1.00
2023-02-27T15:24:00.237Z,1.55
2023-02-27T15:26:32.064Z,1.75
2023-02-27T15:29:00.658Z,2.10
2023-02-27T15:31:31.094Z,2.13
2023-02-27T15:33:59.816Z,1.45
2023-02-27T15:36:29.057Z,1.08
2023-02-27T15:39:16.237Z,0.88
2023-02-27T15:41:45.803Z,0.70
2023-02-27T15:44:14.361Z,0.50
2023-02-27T15:46:42.206Z,1.00
2023-02-27T15:49:15.399Z,0.77
2023-02-27T15:51:42.947Z,0.60
2023-02-27T15:54:11.126Z,1.00
2023-02-27T15:56:39.649Z,0.70
2023-02-27T15:59:08.543Z,0.57
2023-02-27T16:01:36.278Z,0.68
2023-02-27T16:04:05.303Z,0.60
2023-02-27T16:06:33.470Z,0.80
2023-02-27T16:09:02.546Z,0.90
2023-02-27T16:11:30.714Z,0.80
2023-02-27T16:13:58.680Z,0.80
2023-02-27T16:16:31.485Z,0.60
2023-02-27T16:19:00.199Z,0.80
2023-02-27T16:21:31.011Z,0.70
2023-02-27T16:24:13.390Z,0.65
2023-02-27T16:26:41.812Z,0.88
2023-02-27T16:29:16.890Z,0.90
2023-02-27T16:31:49.080Z,0.90
2023-02-27T16:34:26.089Z,0.80
2023-02-27T16:36:56.746Z,0.75
2023-02-27T16:39:24.360Z,0.80
2023-02-27T16:41:52.890Z,0.90
2023-02-27T16:44:21.463Z,0.60
2023-02-27T16:46:50.362Z,1.00
2023-02-27T16:49:22.350Z,0.70
2023-02-27T16:51:49.970Z,1.00
2023-02-27T16:54:17.547Z,0.70
2023-02-27T16:56:47.142Z,0.88
2023-02-27T16:59:24.218Z,0.80
2023-02-27T17:01:53.271Z,0.80
2023-02-27T17:04:25.809Z,0.70
2023-02-27T17:06:54.161Z,0.73
2023-02-27T17:09:21.846Z,1.00
2023-02-27T17:11:49.368Z,0.90
2023-02-27T17:14:17.144Z,1.05
2023-02-27T17:16:44.744Z,1.02
2023-02-27T17:19:14.147Z,0.90
2023-02-27T17:21:41.919Z,1.00
2023-02-27T17:24:09.998Z,1.42
2023-02-27T17:26:37.583Z,1.20
2023-02-27T17:29:05.240Z,1.13
2023-02-27T17:31:32.918Z,1.08
2023-02-27T17:34:00.391Z,1.50
2023-02-27T17:36:29.655Z,1.35
2023-02-27T17:38:57.526Z,1.20
2023-02-27T17:41:25.051Z,1.45
2023-02-27T17:43:53.749Z,1.45
2023-02-27T17:46:21.445Z,1.17
2023-02-27T17:48:49.385Z,1.33
2023-02-27T17:51:18.340Z,1.60
2023-02-27T17:53:47.518Z,1.73
2023-02-27T17:56:15.440Z,1.73
2023-02-27T17:58:45.344Z,1.70
2023-02-27T18:01:13.910Z,1.75
2023-02-27T18:03:41.760Z,1.92
2023-02-27T18:06:09.487Z,1.80
2023-02-27T18:08:37.413Z,1.98
2023-02-27T18:11:09.332Z,1.80
2023-02-27T18:13:36.889Z,1.60
2023-02-27T18:16:05.853Z,1.75
2023-02-27T18:18:35.146Z,1.83
2023-02-27T18:21:02.833Z,1.77
2023-02-27T18:23:30.409Z,1.90
2023-02-27T18:25:59.569Z,2.03
2023-02-27T18:28:28.886Z,1.92
2023-02-27T18:30:56.506Z,1.90
2023-02-27T18:33:24.466Z,1.77
2023-02-27T18:35:52.188Z,1.85
2023-02-27T18:38:19.766Z,1.95
2023-02-27T18:40:47.291Z,1.80
2023-02-27T18:43:14.849Z,1.83
2023-02-27T18:45:43.864Z,1.80
2023-02-27T18:48:11.425Z,1.80
2023-02-27T18:50:38.946Z,2.10
2023-02-27T18:53:06.440Z,2.20
2023-02-27T18:55:34.296Z,1.90
2023-02-27T18:58:01.844Z,1.80
2023-02-27T19:00:29.567Z,1.90
2023-02-27T19:02:58.540Z,2.20
2023-02-27T19:05:26.017Z,2.42
2023-02-27T19:07:53.534Z,2.25
2023-02-27T19:10:21.041Z,2.17
2023-02-27T19:12:50.436Z,2.13
2023-02-27T19:15:17.993Z,2.45
2023-02-27T19:17:46.761Z,3.25
2023-02-27T19:20:17.152Z,3.00
2023-02-27T19:22:44.832Z,3.75
2023-02-27T19:25:12.836Z,4.05
2023-02-27T19:27:40.660Z,3.72
2023-02-27T19:30:08.848Z,4.05
2023-02-27T19:32:37.038Z,3.58
2023-02-27T19:35:04.609Z,3.63
2023-02-27T19:37:33.641Z,3.90
2023-02-27T19:40:01.134Z,4.40
2023-02-27T19:42:28.653Z,3.80
2023-02-27T19:44:56.128Z,3.80
2023-02-27T19:47:23.706Z,3.88
2023-02-27T19:49:51.836Z,3.83
2023-02-27T19:52:19.404Z,3.40
2023-02-27T19:54:48.224Z,4.10
2023-02-27T19:57:15.701Z,3.83
2023-02-27T19:59:43.245Z,4.15
2023-02-27T20:02:11.445Z,3.75
2023-02-27T20:04:38.981Z,3.25
2023-02-27T20:07:06.640Z,3.83
2023-02-27T20:09:34.263Z,3.45
2023-02-27T20:12:03.094Z,3.75
2023-02-27T20:14:31.181Z,3.53
2023-02-27T20:16:58.795Z,3.38
2023-02-27T20:19:26.348Z,3.38
2023-02-27T20:21:54.232Z,3.08
2023-02-27T20:24:22.441Z,3.25
2023-02-27T20:26:52.289Z,3.08
2023-02-27T20:29:22.161Z,2.65
2023-02-27T20:31:51.088Z,3.22
2023-02-27T20:34:21.768Z,3.13
2023-02-27T20:36:50.330Z,2.70
2023-02-27T20:39:18.302Z,2.25
2023-02-27T20:41:46.096Z,2.58
2023-02-27T20:44:14.092Z,2.53
2023-02-27T20:46:43.633Z,2.33
2023-02-27T20:49:11.844Z,2.67
2023-02-27T20:51:40.085Z,2.70
2023-02-27T20:54:08.845Z,2.50
2023-02-27T20:56:37.819Z,2.70
2023-02-27T20:59:06.615Z,2.75
2023-02-27T21:01:35.309Z,2.63
2023-02-27T21:04:05.400Z,3.45
2023-02-27T21:06:33.177Z,2.65
2023-02-27T21:09:03.252Z,2.85
2023-02-27T21:11:31.631Z,3.20
2023-02-27T21:14:00.504Z,3.20
2023-02-27T21:16:28.005Z,2.47
2023-02-27T21:18:56.643Z,3.17
2023-02-27T21:21:26.250Z,3.10
2023-02-27T21:23:53.964Z,2.88
2023-02-27T21:26:22.660Z,2.67
2023-02-27T21:28:52.037Z,2.67
2023-02-27T21:31:20.698Z,2.45
2023-02-27T21:33:48.734Z,2.50
2023-02-27T21:36:16.559Z,2.97
2023-02-27T21:38:45.918Z,2.58
2023-02-27T21:41:13.806Z,2.38
2023-02-27T21:43:41.526Z,2.58
2023-02-27T21:46:09.790Z,1.90
2023-02-27T21:48:37.393Z,2.13
2023-02-27T21:51:05.481Z,2.40
2023-02-27T21:53:33.099Z,2.30
2023-02-27T21:56:05.034Z,2.28
2023-02-27T21:58:33.127Z,2.40
2023-02-27T22:01:00.865Z,2.20
2023-02-27T22:03:34.141Z,1.83
2023-02-27T22:06:02.163Z,1.85
2023-02-27T22:08:29.738Z,1.95
2023-02-27T22:10:58.944Z,2.25
2023-02-27T22:13:28.113Z,2.38
2023-02-27T22:15:56.195Z,2.25
2023-02-27T22:18:23.708Z,2.63
2023-02-27T22:20:51.234Z,2.75
2023-02-27T22:23:18.819Z,3.20
2023-02-27T22:25:46.324Z,3.13
2023-02-27T22:28:13.836Z,3.53
2023-02-27T22:30:42.715Z,3.22
2023-02-27T22:33:10.217Z,3.88
2023-02-27T22:35:37.729Z,3.55
2023-02-27T22:38:05.321Z,3.60
2023-02-27T22:40:35.851Z,3.15
2023-02-27T22:43:03.575Z,3.67
2023-02-27T22:45:31.065Z,3.55
2023-02-27T22:47:59.886Z,3.25
2023-02-27T22:50:27.424Z,3.03
2023-02-27T22:52:54.933Z,3.30
2023-02-27T22:55:22.439Z,3.10
2023-02-27T22:57:51.724Z,3.60
2023-02-27T23:00:19.710Z,3.20
2023-02-27T23:02:47.191Z,3.60
2023-02-27T23:05:16.064Z,3.60
2023-02-27T23:07:43.661Z,2.80
2023-02-27T23:10:12.236Z,3.42
2023-02-27T23:12:39.746Z,2.50
2023-02-27T23:15:07.969Z,3.20
2023-02-27T23:17:36.138Z,2.88
2023-02-27T23:20:06.003Z,3.38
2023-02-27T23:22:34.902Z,3.25
2023-02-27T23:25:07.164Z,2.47
2023-02-27T23:27:34.648Z,2.95
2023-02-27T23:30:02.443Z,3.35
2023-02-27T23:32:29.943Z,3.05
2023-02-27T23:34:57.426Z,3.22
2023-02-27T23:37:24.900Z,3.15
2023-02-27T23:39:53.748Z,3.20
2023-02-27T23:42:21.225Z,3.20
2023-02-27T23:45:06.932Z,3.42
2023-02-27T23:47:43.930Z,2.65
2023-02-27T23:50:13.377Z,3.30
2023-02-27T23:52:40.899Z,2.63
2023-02-27T23:55:10.298Z,3.00
2023-02-27T23:57:37.874Z,2.78
